Airfield :
LOGIN :

Register | Disclaimer

   EN    FR    IT 

 










Legend :    VFR   Marginal VFR   IFR   Intensive IFR   Very Intensive IFR
Visi :
Ceiling :
>= 8 km
>= 3000ft
5 to 8 km
1000 to 3000 ft
1500m to 5 km
500 to 1000 ft
800 to 1500m
200 to 500 ft
< 800m
< 200 ft
Symbols :   Thunderstorms  Fog  Heavy snow  Heavy precipitations  Wind > 20 kt
SIGMETs :     Misc.  Thunderstorms  Icing  Turbulence  Mountain Waves  Volcanic Ashes







- Airport Elevation : 42 ft
- IATA code : CAL
- Download approach charts


EGEC - Campbeltown

CURRENT METAR :
  • 181050Z 13023KT 110V170 9999 BKN019 BKN027 05/03 Q1007

EXPIRED METARs :
  • 181020Z 14025KT 9999 -RA BKN020 BKN027 05/03 Q1007
  • 180950Z 13023KT 9999 -RA BKN018 BKN026 05/03 Q1007
  • 180920Z 13019KT 7000 -RA BKN016 SCT027 05/03 Q1007
  • 180850Z 14018KT 7000 -RA FEW008 SCT014 BKN021 05/03 Q1007
  • 180820Z 13019KT 7000 -RA FEW007 SCT014 BKN024 05/04 Q1007

TAF TAF EGEC
Valid from the 18 at 09:00 until the 18 at 18:00 UTC


180805Z 1809/1818 13016KT 9999 BKN020
TEMPO 1809/1818 15020G30KT 6000 -RA BKN012
PROB40
TEMPO 1809/1818 4500 RADZ BKN007
No reported NOTAMs for that airfield.



MET'MAP, your aeronautical weather chart ! - Copyright ORBIFLY December 2007 - Disclaimer

ORBIFLY MET'MAP TEAM :

Programming & Development : Alexandra Zaïnal
Concept & Development : Baudouin d'Aumeries
Co-Development & Prog : Marc-Olivier Méhu
Technical & hardware support : Manuel Goepfert

Contact : metmap@orbifly.com




SOURCES & CREDITS :

   NOAA